NCAR-RAP Real-Time Weather Data

Output produced by METARs form (06 May 2021  15:52 UTC)
found at http://weather.rap.ucar.edu/surface/
 
KBDR 061452Z 36015G22KT 10SM CLR 15/01 A2992 RMK AO2 PK WND 31026/1354 SLP131 T01500011 51010
KBDR 061352Z 32016G22KT 10SM CLR 14/02 A2992 RMK AO2 PK WND 35029/1318 SLP130 T01390017
KBDR 061252Z 33012G23KT 10SM CLR 13/02 A2991 RMK AO2 SLP129 T01280022
KBDR 061152Z 31015G23KT 10SM CLR 12/03 A2989 RMK AO2 SLP121 70017 T01220028 10122 20089 51020
KBDR 061052Z 32008KT 10SM CLR 11/04 A2988 RMK AO2 SLP118 T01060044
KBDR 060952Z AUTO 31005KT 10SM CLR 09/04 A2986 RMK AO2 SLP110 T00940044
KBDR 060852Z AUTO 30003KT 10SM CLR 09/04 A2983 RMK AO2 SLP101 T00940044 53008
KBDR 060752Z AUTO 30006KT 10SM CLR 10/05 A2981 RMK AO2 SLP095 T01000050
KBDR 060652Z AUTO 30004KT 10SM CLR 09/06 A2981 RMK AO2 SLP094 T00940056
KBDR 060552Z AUTO 28005KT 10SM CLR 11/05 A2981 RMK AO2 SLP093 60002 T01060050 10139 20106 51009
KBDR 060452Z AUTO 30010KT 10SM CLR 12/07 A2979 RMK AO2 SLP088 T01170067 401390100
KBDR 060352Z AUTO 32006G15KT 10SM CLR 12/08 A2980 RMK AO2 SLP090 T01220083
KBDR 060252Z AUTO 32009KT 10SM BKN049 OVC075 13/09 A2978 RMK AO2 RAE0153 SLP084 P0000 60002 T01280094 51020
KBDR 060152Z 32010KT 10SM -RA SCT045 OVC050 13/11 A2978 RMK AO2 SLP082 P0002 T01330106
KBDR 060052Z 26005KT 10SM -RA OVC045 12/11 A2975 RMK AO2 RAB28 SLP076 P0000 T01220111